createdAt,value
2022-10-10T00:01:45.507Z,96113.47
2022-10-10T00:04:13.887Z,96117.19
2022-10-10T00:06:41.954Z,96108.13
2022-10-10T00:09:10.043Z,96104.91
2022-10-10T00:11:38.113Z,96101.16
2022-10-10T00:14:06.349Z,96094.44
2022-10-10T00:16:36.159Z,96095.50
2022-10-10T00:19:04.269Z,96100.63
2022-10-10T00:21:32.338Z,96105.94
2022-10-10T00:24:00.780Z,96102.72
2022-10-10T00:26:28.821Z,96101.41
2022-10-10T00:28:56.915Z,96093.88
2022-10-10T00:31:25.129Z,96090.91
2022-10-10T00:33:54.574Z,96092.81
2022-10-10T00:36:22.957Z,96084.56
2022-10-10T00:38:51.002Z,96080.56
2022-10-10T00:41:19.053Z,96072.00
2022-10-10T00:44:03.028Z,96065.56
2022-10-10T00:46:31.015Z,96071.69
2022-10-10T00:49:00.422Z,96065.53
2022-10-10T00:51:28.558Z,96062.88
2022-10-10T00:53:57.907Z,96069.03
2022-10-10T00:56:28.806Z,96066.59
2022-10-10T00:58:57.983Z,96068.72
2022-10-10T01:01:26.087Z,96066.28
2022-10-10T01:03:55.006Z,96061.75
2022-10-10T01:06:24.497Z,96065.53
2022-10-10T01:08:52.574Z,96071.69
2022-10-10T01:11:39.726Z,96070.03
2022-10-10T01:14:11.542Z,96070.56
2022-10-10T01:16:41.981Z,96066.56
2022-10-10T01:19:19.839Z,96056.72
2022-10-10T01:21:52.350Z,96059.69
2022-10-10T01:24:30.474Z,96047.69
2022-10-10T01:27:31.424Z,96050.38
2022-10-10T01:30:02.957Z,96046.88
2022-10-10T01:32:34.142Z,96044.72
2022-10-10T01:35:09.272Z,96037.81
2022-10-10T01:37:41.642Z,96034.88
2022-10-10T01:40:12.942Z,96039.16
2022-10-10T01:42:43.114Z,96035.69
2022-10-10T01:45:12.614Z,96030.38
2022-10-10T01:47:40.599Z,96031.25
2022-10-10T01:50:17.636Z,96026.47
2022-10-10T01:52:50.901Z,96028.88
2022-10-10T01:55:35.465Z,96022.47
2022-10-10T01:58:14.653Z,96029.47
2022-10-10T02:00:47.341Z,96018.75
2022-10-10T02:03:17.127Z,96023.03
2022-10-10T02:05:47.611Z,96024.38
2022-10-10T02:08:17.198Z,96014.22
2022-10-10T02:10:47.763Z,96001.91
2022-10-10T02:13:15.854Z,95998.41
2022-10-10T02:15:46.958Z,96000.84
2022-10-10T02:18:16.288Z,96007.78
2022-10-10T02:20:44.408Z,96001.66
2022-10-10T02:23:12.674Z,95997.34
2022-10-10T02:25:40.780Z,95997.91
2022-10-10T02:28:09.874Z,96004.31
2022-10-10T02:30:39.138Z,96000.03
2022-10-10T02:33:08.863Z,96005.38
2022-10-10T02:35:38.404Z,96009.16
2022-10-10T02:38:07.279Z,96006.72
2022-10-10T02:40:35.527Z,96003.81
2022-10-10T02:43:04.598Z,96001.38
2022-10-10T02:45:33.297Z,95990.41
2022-10-10T02:48:01.363Z,95993.88
2022-10-10T02:50:30.885Z,95995.97
2022-10-10T02:52:59.044Z,95990.59
2022-10-10T02:55:27.094Z,95995.44
2022-10-10T02:57:56.336Z,95986.63
2022-10-10T03:00:24.669Z,95986.09
2022-10-10T03:02:53.078Z,95989.81
2022-10-10T03:05:21.359Z,95976.41
2022-10-10T03:07:51.123Z,95980.97
2022-10-10T03:10:19.277Z,95972.88
2022-10-10T03:12:47.478Z,95977.16
2022-10-10T03:15:16.072Z,95980.09
2022-10-10T03:17:44.390Z,95986.50
2022-10-10T03:20:12.637Z,95981.97
2022-10-10T03:22:40.752Z,95989.16
2022-10-10T03:25:10.318Z,95974.97
2022-10-10T03:27:38.611Z,95973.59
2022-10-10T03:30:07.582Z,95982.38
2022-10-10T03:32:35.590Z,95978.09
2022-10-10T03:35:03.675Z,95967.16
2022-10-10T03:37:32.072Z,95972.19
2022-10-10T03:40:00.108Z,95979.09
2022-10-10T03:42:29.789Z,95976.72
2022-10-10T03:44:57.789Z,95967.34
2022-10-10T03:47:25.827Z,95972.41
2022-10-10T03:49:53.815Z,95965.97
2022-10-10T03:52:21.948Z,95955.25
2022-10-10T03:54:50.245Z,95954.38
2022-10-10T03:57:18.198Z,95951.13
2022-10-10T03:59:47.643Z,95945.19
2022-10-10T04:02:15.632Z,95951.06
2022-10-10T04:04:43.606Z,95954.50
2022-10-10T04:07:11.693Z,95944.59
2022-10-10T04:09:40.397Z,95947.56
2022-10-10T04:12:08.413Z,95947.81
2022-10-10T04:14:36.419Z,95955.22
2022-10-10T04:17:05.841Z,95946.16
2022-10-10T04:19:33.803Z,95950.41
2022-10-10T04:22:01.848Z,95951.75
2022-10-10T04:24:30.337Z,95947.47
2022-10-10T04:26:58.379Z,95939.78
2022-10-10T04:29:26.491Z,95936.88
2022-10-10T04:31:54.873Z,95929.44
2022-10-10T04:34:24.310Z,95935.88
2022-10-10T04:36:52.801Z,95932.91
2022-10-10T04:39:20.872Z,95933.44
2022-10-10T04:41:49.970Z,95929.66
2022-10-10T04:44:18.038Z,95930.97
2022-10-10T04:46:46.258Z,95930.66
2022-10-10T04:49:14.272Z,95930.34
2022-10-10T04:51:44.055Z,95925.72
2022-10-10T04:54:13.289Z,95928.56
2022-10-10T04:56:42.587Z,95927.75
2022-10-10T04:59:10.574Z,95924.00
2022-10-10T05:01:38.714Z,95927.31
2022-10-10T05:04:07.122Z,95924.94
2022-10-10T05:06:35.520Z,95926.84
2022-10-10T05:09:04.926Z,95927.72
2022-10-10T05:11:32.933Z,95932.00
2022-10-10T05:14:00.992Z,95930.97
2022-10-10T05:16:29.013Z,95927.78
2022-10-10T05:18:57.846Z,95932.59
2022-10-10T05:21:26.004Z,95935.81
2022-10-10T05:23:54.013Z,95943.81
2022-10-10T05:26:23.415Z,95935.81
2022-10-10T05:28:51.450Z,95937.44
2022-10-10T05:31:19.787Z,95937.16
2022-10-10T05:33:47.736Z,95933.75
2022-10-10T05:36:15.735Z,95930.31
2022-10-10T05:38:43.723Z,95929.50
2022-10-10T05:41:12.641Z,95930.59
2022-10-10T05:43:41.994Z,95931.34
2022-10-10T05:46:10.362Z,95926.56
2022-10-10T05:48:38.515Z,95930.34
2022-10-10T05:51:07.677Z,95935.69
2022-10-10T05:53:35.618Z,95931.72
2022-10-10T05:56:03.623Z,95924.25
2022-10-10T05:58:31.986Z,95939.47
2022-10-10T06:01:05.246Z,95934.94
2022-10-10T06:03:33.391Z,95933.56
2022-10-10T06:06:01.394Z,95938.69
2022-10-10T06:08:31.486Z,95936.00
2022-10-10T06:11:02.994Z,95938.69
2022-10-10T06:13:30.998Z,95940.03
2022-10-10T06:15:59.218Z,95938.72
2022-10-10T06:18:28.593Z,95936.34
2022-10-10T06:20:56.628Z,95943.06
2022-10-10T06:23:24.762Z,95942.25
2022-10-10T06:25:53.221Z,95940.94
2022-10-10T06:28:21.522Z,95942.53
2022-10-10T06:30:50.533Z,95937.75
2022-10-10T06:33:19.375Z,95944.97
2022-10-10T06:35:49.373Z,95941.75
2022-10-10T06:38:17.603Z,95940.69
2022-10-10T06:40:45.783Z,95938.28
2022-10-10T06:43:14.553Z,95944.41
2022-10-10T06:45:43.380Z,95962.88
2022-10-10T06:48:11.459Z,95966.09
2022-10-10T06:50:39.445Z,95962.34
2022-10-10T06:53:09.176Z,95966.38
2022-10-10T06:55:37.235Z,95963.72
2022-10-10T06:58:05.367Z,95962.91
2022-10-10T07:00:33.458Z,95956.75
2022-10-10T07:03:01.598Z,95962.91
2022-10-10T07:05:30.004Z,95969.88
2022-10-10T07:07:58.017Z,95968.81
2022-10-10T07:10:27.407Z,95973.59
2022-10-10T07:12:55.584Z,95974.94
2022-10-10T07:15:23.975Z,95982.69
2022-10-10T07:17:58.372Z,95979.50
2022-10-10T07:20:26.671Z,95988.88
2022-10-10T07:22:54.716Z,95978.72
2022-10-10T07:25:22.832Z,95974.44
2022-10-10T07:27:52.297Z,95975.78
2022-10-10T07:30:20.470Z,95983.28
2022-10-10T07:32:49.021Z,95985.69
2022-10-10T07:35:17.611Z,95994.00
2022-10-10T07:37:46.088Z,95994.00
2022-10-10T07:40:14.165Z,95990.78
2022-10-10T07:42:42.363Z,95996.66
2022-10-10T07:45:12.381Z,95994.22
2022-10-10T07:47:40.759Z,95991.56
2022-10-10T07:50:09.304Z,95997.97
2022-10-10T07:52:37.526Z,96002.53
2022-10-10T07:55:07.961Z,96004.16
2022-10-10T07:57:36.687Z,96001.75
2022-10-10T08:00:06.201Z,95996.44
2022-10-10T08:02:41.134Z,95993.28
2022-10-10T08:05:09.816Z,95995.16
2022-10-10T08:07:40.414Z,96000.78
2022-10-10T08:10:11.030Z,95994.13
2022-10-10T08:12:39.206Z,95993.88
2022-10-10T08:15:08.391Z,95995.78
2022-10-10T08:17:36.560Z,95995.25
2022-10-10T08:20:06.694Z,95986.16
2022-10-10T08:22:34.790Z,95988.06
2022-10-10T08:25:02.949Z,95994.22
2022-10-10T08:27:31.606Z,95988.31
2022-10-10T08:29:59.862Z,95980.53
2022-10-10T08:32:28.151Z,95986.66
2022-10-10T08:34:56.218Z,95990.13
2022-10-10T08:37:31.662Z,95990.38
2022-10-10T08:40:01.963Z,95996.81
2022-10-10T08:42:32.519Z,95993.31
2022-10-10T08:45:05.427Z,95986.06
2022-10-10T08:47:37.998Z,95983.84
2022-10-10T08:50:07.812Z,95988.59
2022-10-10T08:52:39.340Z,95994.66
2022-10-10T08:55:09.067Z,95992.66
2022-10-10T08:57:41.536Z,95998.69
2022-10-10T09:00:13.693Z,95998.78
2022-10-10T09:02:58.309Z,95990.06
2022-10-10T09:05:37.932Z,95997.06
2022-10-10T09:08:14.620Z,96002.63
2022-10-10T09:10:46.840Z,95996.59
2022-10-10T09:13:20.293Z,95997.88
2022-10-10T09:15:53.341Z,95992.84
2022-10-10T09:18:24.033Z,95988.56
2022-10-10T09:20:54.977Z,95992.84
2022-10-10T09:23:26.471Z,95988.94
2022-10-10T09:25:57.165Z,95987.78
2022-10-10T09:28:34.191Z,95987.66
2022-10-10T09:31:02.291Z,95980.34
2022-10-10T09:33:33.029Z,95985.06
2022-10-10T09:36:01.438Z,95987.25
2022-10-10T09:38:34.516Z,95985.19
2022-10-10T09:41:04.115Z,95990.03
2022-10-10T09:43:35.807Z,95980.97
2022-10-10T09:46:03.995Z,95988.44
2022-10-10T09:48:33.559Z,95986.44
2022-10-10T09:51:02.097Z,95985.31
2022-10-10T09:53:30.210Z,95983.75
2022-10-10T09:55:59.798Z,95983.84
2022-10-10T09:58:31.185Z,95986.97
2022-10-10T10:01:13.830Z,95984.41
2022-10-10T10:03:42.258Z,95986.81
2022-10-10T10:06:13.057Z,95993.31
2022-10-10T10:08:41.234Z,96008.31
2022-10-10T10:11:23.130Z,95995.84
2022-10-10T10:13:55.224Z,95999.41
2022-10-10T10:16:31.845Z,95995.63
2022-10-10T10:18:59.940Z,96011.91
2022-10-10T10:21:28.008Z,96000.03
2022-10-10T10:23:59.666Z,96005.38
2022-10-10T10:26:32.097Z,96011.78
2022-10-10T10:29:00.142Z,96017.00
2022-10-10T10:31:54.130Z,96012.63
2022-10-10T10:34:42.059Z,96024.97
2022-10-10T10:37:18.067Z,96024.69
2022-10-10T10:39:51.910Z,96021.41
2022-10-10T10:42:33.210Z,96019.53
2022-10-10T10:45:05.076Z,96016.34
2022-10-10T10:47:39.253Z,96015.47
2022-10-10T10:50:26.008Z,96021.31
2022-10-10T10:53:03.735Z,96011.84
2022-10-10T10:55:39.302Z,96012.38
2022-10-10T11:01:38.495Z,96008.72
2022-10-10T11:05:17.481Z,96010.94
2022-10-10T11:07:18.476Z,96009.19
2022-10-10T11:09:51.723Z,96014.94
2022-10-10T11:12:26.730Z,96012.09
2022-10-10T11:15:03.886Z,96013.03
2022-10-10T11:17:37.132Z,96012.06
2022-10-10T11:20:08.186Z,96015.06
2022-10-10T11:22:37.680Z,96016.94
2022-10-10T11:25:08.471Z,96017.94
2022-10-10T11:27:39.863Z,96017.38
2022-10-10T11:30:15.762Z,96016.66
2022-10-10T11:32:51.492Z,96010.44
2022-10-10T11:35:29.995Z,96009.13
2022-10-10T11:38:02.407Z,95998.44
2022-10-10T11:40:36.134Z,95995.00
2022-10-10T11:43:06.027Z,96003.63
2022-10-10T11:45:39.581Z,95996.00
2022-10-10T11:48:15.016Z,96001.53
2022-10-10T11:50:47.023Z,96001.22
2022-10-10T11:53:20.981Z,95997.22
2022-10-10T11:55:54.190Z,96010.09
2022-10-10T11:58:33.284Z,96008.53
2022-10-10T12:01:06.232Z,96008.94
2022-10-10T12:03:35.014Z,96014.72
2022-10-10T12:06:06.123Z,96004.28
2022-10-10T12:08:37.070Z,96019.28
2022-10-10T12:11:11.472Z,96014.56
2022-10-10T12:13:40.402Z,96004.00
2022-10-10T12:16:11.197Z,96004.50
2022-10-10T12:18:41.147Z,95998.38
2022-10-10T12:21:10.390Z,95997.34
2022-10-10T12:23:38.624Z,95999.38
2022-10-10T12:26:07.551Z,95994.16
2022-10-10T12:28:37.697Z,95992.16
2022-10-10T12:31:38.893Z,95994.38
2022-10-10T12:34:19.362Z,95995.81
2022-10-10T12:37:13.327Z,95996.31
2022-10-10T12:40:02.922Z,95996.78
2022-10-10T12:42:32.488Z,95988.66
2022-10-10T12:45:03.848Z,95983.44
2022-10-10T12:48:04.616Z,95999.63
2022-10-10T12:50:35.386Z,95989.88
2022-10-10T12:53:21.373Z,95988.94
2022-10-10T12:55:50.470Z,95988.31
2022-10-10T12:58:27.082Z,95977.63
2022-10-10T13:00:57.107Z,95976.00
2022-10-10T13:03:32.352Z,95982.50
2022-10-10T13:06:05.247Z,95981.53
2022-10-10T13:08:33.421Z,95983.41
2022-10-10T13:11:06.919Z,95973.63
2022-10-10T13:13:34.976Z,95967.44
2022-10-10T13:16:08.321Z,95976.34
2022-10-10T13:18:39.314Z,95969.56
2022-10-10T13:21:08.883Z,95962.53
2022-10-10T13:23:37.470Z,95966.16
2022-10-10T13:26:05.520Z,95956.34
2022-10-10T13:28:33.698Z,95956.63
2022-10-10T13:31:01.900Z,95954.31
2022-10-10T13:33:32.431Z,95958.19
2022-10-10T13:36:07.526Z,95966.41
2022-10-10T13:38:35.530Z,95956.00
2022-10-10T13:41:04.525Z,95954.63
2022-10-10T13:43:33.427Z,95953.44
2022-10-10T13:46:02.312Z,95957.00
2022-10-10T13:48:39.014Z,95957.66
2022-10-10T13:51:10.433Z,95958.59
2022-10-10T13:53:50.593Z,95960.72
2022-10-10T13:56:22.589Z,95963.16
2022-10-10T13:58:51.989Z,95961.63
2022-10-10T14:01:29.618Z,95968.22
2022-10-10T14:03:59.519Z,95963.63
2022-10-10T14:06:28.938Z,95966.66
2022-10-10T14:09:04.112Z,95961.66
2022-10-10T14:11:32.193Z,95958.56
2022-10-10T14:14:03.933Z,95959.16
2022-10-10T14:16:31.981Z,95956.44
2022-10-10T14:19:00.092Z,95959.16
2022-10-10T14:21:29.502Z,95957.53
2022-10-10T14:23:57.513Z,95954.06
2022-10-10T14:26:25.835Z,95952.75
2022-10-10T14:28:53.933Z,95956.84
2022-10-10T14:31:22.116Z,95956.34
2022-10-10T14:33:50.169Z,95956.63
2022-10-10T14:36:18.165Z,95959.34
2022-10-10T14:38:47.636Z,95962.84
2022-10-10T14:41:15.939Z,95959.75
2022-10-10T14:43:46.012Z,95957.66
2022-10-10T14:46:17.594Z,95963.84
2022-10-10T14:48:45.598Z,95958.47
2022-10-10T14:51:34.544Z,95959.47
2022-10-10T14:54:10.790Z,95953.84
2022-10-10T14:57:07.411Z,95957.94
2022-10-10T14:59:47.143Z,95951.56
2022-10-10T15:02:19.098Z,95954.56
2022-10-10T15:04:47.107Z,95953.47
2022-10-10T15:07:15.861Z,95951.25
2022-10-10T15:12:46.053Z,95953.25
2022-10-10T15:15:15.277Z,95958.94
2022-10-10T15:17:43.466Z,95953.84
2022-10-10T15:20:12.960Z,95964.22
2022-10-10T15:22:44.725Z,95958.03
2022-10-10T15:25:14.240Z,95959.25
2022-10-10T15:27:43.184Z,95960.72
2022-10-10T15:30:16.590Z,95964.06
2022-10-10T15:32:49.730Z,95963.06
2022-10-10T15:35:19.583Z,95962.34
2022-10-10T15:37:59.837Z,95959.53
2022-10-10T15:40:34.356Z,95969.31
2022-10-10T15:43:03.740Z,95964.28
2022-10-10T15:46:02.356Z,95973.78
2022-10-10T15:48:31.131Z,95979.53
2022-10-10T15:51:00.553Z,95977.50
2022-10-10T15:53:30.121Z,95987.63
2022-10-10T15:56:01.901Z,95988.38
2022-10-10T15:58:34.851Z,95997.19
2022-10-10T16:01:11.068Z,95992.75
2022-10-10T16:03:39.158Z,95997.47
2022-10-10T16:06:09.935Z,95992.53
2022-10-10T16:08:43.223Z,95998.41
2022-10-10T16:11:13.207Z,96008.47
2022-10-10T16:14:03.806Z,95996.47
2022-10-10T16:26:33.043Z,96019.28
2022-10-10T16:29:02.497Z,96016.97
2022-10-10T16:31:30.741Z,96015.97
2022-10-10T16:33:59.860Z,96014.72
2022-10-10T16:36:29.092Z,96023.38
2022-10-10T16:38:58.037Z,96020.78
2022-10-10T16:41:46.644Z,96027.50
2022-10-10T16:44:16.419Z,96024.84
2022-10-10T16:46:45.778Z,96035.09
2022-10-10T16:49:13.998Z,96034.84
2022-10-10T16:51:42.171Z,96028.94
2022-10-10T16:54:10.259Z,96028.94
2022-10-10T16:56:38.344Z,96034.03
2022-10-10T16:59:06.549Z,96028.66
2022-10-10T17:01:36.430Z,96027.63
2022-10-10T17:04:04.870Z,96035.38
2022-10-10T17:06:37.557Z,96032.41
2022-10-10T17:09:07.103Z,96034.03
2022-10-10T17:11:35.546Z,96031.94
2022-10-10T17:14:03.777Z,96033.88
2022-10-10T17:19:21.780Z,96034.97
2022-10-10T17:21:49.886Z,96042.50
2022-10-10T17:24:18.029Z,96039.22
2022-10-10T17:26:46.157Z,96037.63
2022-10-10T17:29:23.680Z,96047.81
2022-10-10T17:31:51.722Z,96042.97
2022-10-10T17:34:22.046Z,96044.34
2022-10-10T17:36:50.129Z,96045.44
2022-10-10T17:39:18.261Z,96054.31
2022-10-10T17:41:49.217Z,96060.22
2022-10-10T17:44:17.557Z,96064.53
2022-10-10T17:46:45.944Z,96060.78
2022-10-10T17:49:14.269Z,96054.03
2022-10-10T17:51:43.746Z,96056.19
2022-10-10T17:54:13.435Z,96059.63
2022-10-10T17:56:44.553Z,96059.06
2022-10-10T17:59:12.592Z,96061.72
2022-10-10T18:01:41.085Z,96052.06
2022-10-10T18:04:09.237Z,96071.66
2022-10-10T18:06:37.865Z,96066.03
2022-10-10T18:09:07.753Z,96078.38
2022-10-10T18:11:35.851Z,96073.06
2022-10-10T18:14:04.381Z,96081.69
2022-10-10T18:16:34.022Z,96083.84
2022-10-10T18:19:15.390Z,96083.66
2022-10-10T18:21:43.528Z,96080.97
2022-10-10T18:24:13.090Z,96089.03
2022-10-10T18:26:41.143Z,96083.94
2022-10-10T18:29:09.269Z,96086.34
2022-10-10T18:31:38.267Z,96090.66
2022-10-10T18:34:13.044Z,96091.19
2022-10-10T18:36:42.447Z,96086.91
2022-10-10T18:39:14.467Z,96091.72
2022-10-10T18:41:42.628Z,96087.72
2022-10-10T18:44:12.522Z,96085.81
2022-10-10T18:46:41.341Z,96093.06
2022-10-10T18:49:10.029Z,96091.16
2022-10-10T18:51:39.934Z,96092.78
2022-10-10T18:54:09.065Z,96089.31
2022-10-10T18:56:39.336Z,96090.91
2022-10-10T18:59:08.227Z,96089.03
2022-10-10T19:01:39.664Z,96087.16
2022-10-10T19:04:08.603Z,96091.97
2022-10-10T19:06:36.797Z,96090.91
2022-10-10T19:09:05.258Z,96097.88
2022-10-10T19:11:34.570Z,96101.66
2022-10-10T19:14:05.297Z,96099.25
2022-10-10T19:16:33.687Z,96094.66
2022-10-10T19:19:01.963Z,96109.69
2022-10-10T19:21:31.235Z,96099.22
2022-10-10T19:23:59.900Z,96092.78
2022-10-10T19:26:27.974Z,96099.72
2022-10-10T19:28:56.080Z,96104.03
2022-10-10T19:31:26.991Z,96103.50
2022-10-10T19:33:55.236Z,96106.69
2022-10-10T19:36:23.520Z,96105.06
2022-10-10T19:38:51.624Z,96106.13
2022-10-10T19:41:20.343Z,96109.06
2022-10-10T19:43:49.121Z,96122.19
2022-10-10T19:46:18.021Z,96118.75
2022-10-10T19:48:47.519Z,96120.34
2022-10-10T19:51:16.221Z,96127.31
2022-10-10T19:53:44.317Z,96134.84
2022-10-10T19:56:13.839Z,96132.69
2022-10-10T19:58:41.959Z,96136.16
2022-10-10T20:01:10.441Z,96142.31
2022-10-10T20:03:38.543Z,96149.59
2022-10-10T20:06:08.225Z,96143.44
2022-10-10T20:08:36.321Z,96142.88
2022-10-10T20:11:04.778Z,96148.78
2022-10-10T20:13:32.875Z,96149.56
2022-10-10T20:16:03.560Z,96153.88
2022-10-10T20:18:33.380Z,96159.00
2022-10-10T20:21:01.421Z,96163.31
2022-10-10T20:23:31.259Z,96166.50
2022-10-10T20:25:59.339Z,96170.81
2022-10-10T20:28:27.455Z,96169.72
2022-10-10T20:30:55.582Z,96177.25
2022-10-10T20:33:23.633Z,96182.88
2022-10-10T20:35:55.951Z,96182.34
2022-10-10T20:38:24.708Z,96192.03
2022-10-10T20:40:54.201Z,96191.22
2022-10-10T20:43:22.311Z,96198.97
2022-10-10T20:45:50.395Z,96194.44
2022-10-10T20:48:18.450Z,96195.22
2022-10-10T20:50:46.771Z,96202.50
2022-10-10T20:53:14.859Z,96185.59
2022-10-10T20:55:42.928Z,96206.50
2022-10-10T20:58:13.102Z,96202.50
2022-10-10T21:00:44.953Z,96203.53
2022-10-10T21:03:13.707Z,96212.13
2022-10-10T21:05:42.739Z,96200.56
2022-10-10T21:08:11.454Z,96195.72
2022-10-10T21:10:43.110Z,96199.50
2022-10-10T21:13:13.389Z,96211.53
2022-10-10T21:15:44.918Z,96215.25
2022-10-10T21:18:13.883Z,96213.09
2022-10-10T21:20:42.883Z,96219.53
2022-10-10T21:23:11.850Z,96226.47
2022-10-10T21:25:40.529Z,96222.97
2022-10-10T21:28:09.297Z,96222.16
2022-10-10T21:30:39.537Z,96225.09
2022-10-10T21:33:08.654Z,96226.94
2022-10-10T21:35:37.659Z,96232.53
2022-10-10T21:38:06.838Z,96228.22
2022-10-10T21:40:36.649Z,96230.63
2022-10-10T21:43:05.438Z,96232.72
2022-10-10T21:45:35.913Z,96230.00
2022-10-10T21:48:06.308Z,96237.19
2022-10-10T21:50:35.180Z,96243.28
2022-10-10T21:53:03.906Z,96233.31
2022-10-10T21:55:32.705Z,96237.56
2022-10-10T21:58:01.460Z,96238.34
2022-10-10T22:00:30.634Z,96238.56
2022-10-10T22:02:59.584Z,96242.50
2022-10-10T22:05:29.661Z,96244.06
2022-10-10T22:07:58.255Z,96245.13
2022-10-10T22:10:27.746Z,96252.84
2022-10-10T22:12:57.039Z,96246.41
2022-10-10T22:15:26.270Z,96246.09
2022-10-10T22:17:54.929Z,96244.47
2022-10-10T22:20:23.663Z,96250.25
2022-10-10T22:22:53.938Z,96254.25
2022-10-10T22:25:22.703Z,96255.56
2022-10-10T22:27:56.331Z,96250.19
2022-10-10T22:30:25.831Z,96252.53
2022-10-10T22:33:06.177Z,96254.66
2022-10-10T22:35:34.492Z,96246.88
2022-10-10T22:38:03.903Z,96257.56
2022-10-10T22:40:32.101Z,96252.78
2022-10-10T22:43:00.419Z,96255.22
2022-10-10T22:45:29.199Z,96253.09
2022-10-10T22:47:57.269Z,96256.31
2022-10-10T22:50:25.310Z,96260.34
2022-10-10T22:52:53.434Z,96264.63
2022-10-10T22:55:23.161Z,96272.66
2022-10-10T22:57:51.216Z,96272.66
2022-10-10T23:00:19.499Z,96276.63
2022-10-10T23:02:47.500Z,96274.47
2022-10-10T23:05:15.783Z,96276.84
2022-10-10T23:07:43.790Z,96271.75
2022-10-10T23:10:12.114Z,96281.63
2022-10-10T23:12:41.543Z,96272.56
2022-10-10T23:15:10.188Z,96280.00
2022-10-10T23:17:38.247Z,96278.66
2022-10-10T23:20:07.515Z,96282.16
2022-10-10T23:22:35.771Z,96282.66
2022-10-10T23:25:03.831Z,96287.69
2022-10-10T23:27:31.817Z,96293.84
2022-10-10T23:30:01.291Z,96297.06
2022-10-10T23:32:30.441Z,96300.06
2022-10-10T23:34:58.610Z,96294.44
2022-10-10T23:37:27.966Z,96306.19
2022-10-10T23:39:56.065Z,96316.09
2022-10-10T23:42:24.071Z,96313.69
2022-10-10T23:44:52.124Z,96313.94
2022-10-10T23:47:21.718Z,96314.75
2022-10-10T23:49:50.022Z,96327.31
2022-10-10T23:52:18.233Z,96320.91
2022-10-10T23:54:46.212Z,96333.22
2022-10-10T23:57:14.247Z,96328.69
2022-10-10T23:59:42.282Z,96335.41
